Time;durP1;ratioP1;P1;durP2;ratioP2;P2;SDS_P1;SDS_P2;PMS_P1;PMS_P2;Temp;Humidity;BMP_temperature;BMP_pressure;BME280_temperature;BME280_humidity;BME280_pressure;Samples;Min_cycle;Max_cycle;Signal;HPM_P1;HPM_P2
2024/01/09 00:01:52;;;;;;;9.90;6.10;;;;;;;;;;5133723;27;20058;-51
2024/01/09 00:04:20;;;;;;;9.27;5.95;;;;;;;;;;5135049;27;21104;-52
2024/01/09 00:06:47;;;;;;;10.50;6.25;;;;;;;;;;5141312;27;20039;-50
2024/01/09 00:09:14;;;;;;;9.43;6.10;;;;;;;;;;5133482;27;20054;-52
2024/01/09 00:11:40;;;;;;;9.43;5.97;;;;;;;;;;5133398;27;20051;-53
2024/01/09 00:14:07;;;;;;;10.73;6.03;;;;;;;;;;5134820;27;20488;-53
2024/01/09 00:16:34;;;;;;;10.23;6.28;;;;;;;;;;5145718;27;20043;-52
2024/01/09 00:19:01;;;;;;;10.85;6.15;;;;;;;;;;5153394;27;20050;-52
2024/01/09 00:21:29;;;;;;;10.35;6.32;;;;;;;;;;5158305;27;20047;-52
2024/01/09 00:23:56;;;;;;;9.82;6.20;;;;;;;;;;5158437;27;20055;-53
2024/01/09 00:26:23;;;;;;;9.98;6.13;;;;;;;;;;5138329;27;20385;-52
2024/01/09 00:28:50;;;;;;;9.52;5.85;;;;;;;;;;5137492;27;20054;-50
2024/01/09 00:31:16;;;;;;;8.00;5.45;;;;;;;;;;5137343;27;20058;-53
2024/01/09 00:33:43;;;;;;;9.38;5.45;;;;;;;;;;5137674;27;20051;-53
2024/01/09 00:36:10;;;;;;;9.52;6.40;;;;;;;;;;5143944;27;20507;-51
2024/01/09 00:38:38;;;;;;;10.65;6.20;;;;;;;;;;5143587;27;20066;-51
2024/01/09 00:41:05;;;;;;;7.95;5.53;;;;;;;;;;5137314;27;20055;-51
2024/01/09 00:43:32;;;;;;;11.40;5.82;;;;;;;;;;5137624;27;20069;-51
2024/01/09 00:45:58;;;;;;;7.10;4.90;;;;;;;;;;5140185;27;20048;-51
2024/01/09 00:48:25;;;;;;;9.02;6.10;;;;;;;;;;5146626;27;20065;-52
2024/01/09 00:50:52;;;;;;;9.13;5.65;;;;;;;;;;5145409;27;20058;-53
2024/01/09 00:53:19;;;;;;;9.13;5.70;;;;;;;;;;5140463;27;20058;-50
2024/01/09 00:55:47;;;;;;;11.88;6.45;;;;;;;;;;5137475;27;20062;-50
2024/01/09 00:58:13;;;;;;;9.30;5.70;;;;;;;;;;5136927;27;20051;-50
2024/01/09 01:00:40;;;;;;;9.15;5.78;;;;;;;;;;5137163;27;20532;-52
2024/01/09 01:03:07;;;;;;;9.20;5.75;;;;;;;;;;5140806;27;20061;-53
2024/01/09 01:05:34;;;;;;;10.38;6.35;;;;;;;;;;5139461;27;20483;-50
2024/01/09 01:08:01;;;;;;;9.30;5.75;;;;;;;;;;5136694;27;20491;-51
2024/01/09 01:10:27;;;;;;;9.80;5.70;;;;;;;;;;5136824;27;20074;-54
2024/01/09 01:12:56;;;;;;;8.73;5.50;;;;;;;;;;5138374;27;20043;-53
2024/01/09 01:15:23;;;;;;;10.73;5.45;;;;;;;;;;5143724;27;20050;-50
2024/01/09 01:17:49;;;;;;;10.27;5.88;;;;;;;;;;5136554;27;20487;-54
2024/01/09 01:20:16;;;;;;;10.48;5.57;;;;;;;;;;5136490;27;20058;-52
2024/01/09 01:22:43;;;;;;;9.77;5.93;;;;;;;;;;5136097;27;20062;-53
2024/01/09 01:25:10;;;;;;;9.48;5.20;;;;;;;;;;5136202;27;20070;-53
2024/01/09 01:27:37;;;;;;;11.23;5.43;;;;;;;;;;5135970;27;20047;-52
2024/01/09 01:30:06;;;;;;;9.57;5.32;;;;;;;;;;5136645;27;20054;-53
2024/01/09 01:32:33;;;;;;;8.93;5.50;;;;;;;;;;5138638;27;20515;-51
2024/01/09 01:35:00;;;;;;;9.10;5.82;;;;;;;;;;5144756;27;20511;-54
2024/01/09 01:37:26;;;;;;;10.35;5.45;;;;;;;;;;5144842;27;20058;-53
2024/01/09 01:39:53;;;;;;;8.77;5.43;;;;;;;;;;5144580;27;20050;-50
2024/01/09 01:42:20;;;;;;;9.05;5.00;;;;;;;;;;5142503;27;20051;-51
2024/01/09 01:44:47;;;;;;;9.93;5.97;;;;;;;;;;5144216;27;20051;-53
2024/01/09 01:47:15;;;;;;;8.95;5.43;;;;;;;;;;5146100;27;20066;-51
2024/01/09 01:49:42;;;;;;;9.02;5.43;;;;;;;;;;5141925;27;20043;-52
2024/01/09 01:52:10;;;;;;;8.85;5.18;;;;;;;;;;5139917;27;20050;-52
2024/01/09 01:54:38;;;;;;;8.52;5.35;;;;;;;;;;5156788;27;20050;-52
2024/01/09 01:57:06;;;;;;;9.52;5.63;;;;;;;;;;5160508;27;20046;-51
2024/01/09 01:59:35;;;;;;;8.55;5.40;;;;;;;;;;5165500;27;20038;-53
2024/01/09 02:02:03;;;;;;;10.30;5.70;;;;;;;;;;5160855;27;20051;-49
2024/01/09 02:04:32;;;;;;;9.15;5.05;;;;;;;;;;5164422;27;20053;-49
2024/01/09 02:06:59;;;;;;;9.30;5.82;;;;;;;;;;5162361;27;20050;-52
2024/01/09 02:09:26;;;;;;;9.85;5.90;;;;;;;;;;5156432;27;20057;-51
2024/01/09 02:11:54;;;;;;;8.27;5.50;;;;;;;;;;5156147;27;20062;-52
2024/01/09 02:14:20;;;;;;;8.38;5.30;;;;;;;;;;5165245;27;20042;-50
2024/01/09 02:16:47;;;;;;;8.27;4.95;;;;;;;;;;5176885;27;20054;-53
2024/01/09 02:19:14;;;;;;;10.32;5.75;;;;;;;;;;5170539;27;20057;-52
2024/01/09 02:21:44;;;;;;;9.75;5.50;;;;;;;;;;5166732;27;20415;-54
2024/01/09 02:24:10;;;;;;;9.40;5.40;;;;;;;;;;5159632;27;20055;-51
2024/01/09 02:26:41;;;;;;;10.98;6.18;;;;;;;;;;5160436;27;20069;-49
2024/01/09 02:29:09;;;;;;;11.93;5.68;;;;;;;;;;5164330;27;20064;-50
2024/01/09 02:31:38;;;;;;;7.93;5.03;;;;;;;;;;5163386;27;20483;-51
2024/01/09 02:34:05;;;;;;;10.35;6.03;;;;;;;;;;5155073;27;20057;-52
2024/01/09 02:36:32;;;;;;;9.65;5.00;;;;;;;;;;5155430;27;20061;-50
2024/01/09 02:38:58;;;;;;;8.23;5.35;;;;;;;;;;5155495;27;20046;-50
2024/01/09 02:41:25;;;;;;;8.57;5.13;;;;;;;;;;5155198;27;20047;-53
2024/01/09 02:43:52;;;;;;;9.20;5.57;;;;;;;;;;5160943;27;20046;-54
2024/01/09 02:46:19;;;;;;;8.23;5.03;;;;;;;;;;5164041;27;20390;-51
2024/01/09 02:48:47;;;;;;;8.52;5.65;;;;;;;;;;5137990;27;20051;-51
2024/01/09 02:51:14;;;;;;;8.55;5.72;;;;;;;;;;5165965;27;20050;-49
2024/01/09 02:53:40;;;;;;;10.68;5.45;;;;;;;;;;5143915;27;20064;-53
2024/01/09 02:56:07;;;;;;;9.07;5.50;;;;;;;;;;5143054;27;20051;-51
2024/01/09 02:58:34;;;;;;;9.23;5.50;;;;;;;;;;5143165;27;20474;-49
2024/01/09 03:01:01;;;;;;;9.18;5.28;;;;;;;;;;5139489;27;20407;-51
2024/01/09 03:03:28;;;;;;;9.20;5.20;;;;;;;;;;5138340;27;20440;-50
2024/01/09 03:05:56;;;;;;;8.70;5.05;;;;;;;;;;5138654;27;20047;-55
2024/01/09 03:08:23;;;;;;;9.02;5.53;;;;;;;;;;5145333;27;20054;-53
2024/01/09 03:10:50;;;;;;;9.57;5.65;;;;;;;;;;5155351;27;20055;-54
2024/01/09 03:13:17;;;;;;;8.82;5.43;;;;;;;;;;5146136;27;20051;-51
2024/01/09 03:15:44;;;;;;;10.07;5.80;;;;;;;;;;5132729;27;20050;-51
2024/01/09 03:18:10;;;;;;;8.77;5.15;;;;;;;;;;5134716;27;20054;-53
2024/01/09 03:20:37;;;;;;;8.65;5.57;;;;;;;;;;5134325;27;20055;-51
2024/01/09 03:23:05;;;;;;;9.80;5.75;;;;;;;;;;5136408;27;20390;-51
2024/01/09 03:25:32;;;;;;;9.68;5.47;;;;;;;;;;5142213;27;20047;-51
2024/01/09 03:27:59;;;;;;;9.35;5.85;;;;;;;;;;5141943;27;20054;-54
2024/01/09 03:30:29;;;;;;;9.30;5.88;;;;;;;;;;5133346;27;20055;-52
2024/01/09 03:32:56;;;;;;;7.30;5.05;;;;;;;;;;5134127;27;20047;-53
2024/01/09 03:35:23;;;;;;;9.38;5.43;;;;;;;;;;5144145;27;20054;-50
2024/01/09 03:37:49;;;;;;;9.93;5.57;;;;;;;;;;5148686;27;20400;-50
2024/01/09 03:40:18;;;;;;;8.77;5.95;;;;;;;;;;5139997;27;20468;-53
2024/01/09 03:42:44;;;;;;;8.93;5.47;;;;;;;;;;5113133;28;20508;-53
2024/01/09 03:45:11;;;;;;;8.32;5.43;;;;;;;;;;5136525;27;20483;-53
2024/01/09 03:47:38;;;;;;;8.05;5.25;;;;;;;;;;5143911;27;20039;-51
2024/01/09 03:50:05;;;;;;;9.20;5.40;;;;;;;;;;5140913;27;20047;-51
2024/01/09 03:52:32;;;;;;;9.80;5.85;;;;;;;;;;5142153;27;20054;-51
2024/01/09 03:54:58;;;;;;;8.77;5.57;;;;;;;;;;5142636;27;20053;-52
2024/01/09 03:57:26;;;;;;;9.00;5.53;;;;;;;;;;5139068;27;20050;-51
2024/01/09 03:59:53;;;;;;;9.35;5.90;;;;;;;;;;5134205;27;20393;-53
2024/01/09 04:02:20;;;;;;;8.85;5.18;;;;;;;;;;5133949;27;20503;-51
2024/01/09 04:04:47;;;;;;;10.30;5.50;;;;;;;;;;5133463;27;20511;-54
2024/01/09 04:07:13;;;;;;;10.07;5.47;;;;;;;;;;5134240;27;20050;-53
2024/01/09 04:09:40;;;;;;;8.70;5.30;;;;;;;;;;5141081;27;20051;-51
2024/01/09 04:12:07;;;;;;;8.98;5.60;;;;;;;;;;5135188;27;20058;-52
2024/01/09 04:14:35;;;;;;;10.02;5.95;;;;;;;;;;5133810;27;20047;-51
2024/01/09 04:17:02;;;;;;;11.10;5.53;;;;;;;;;;5133570;27;20484;-53
2024/01/09 04:19:29;;;;;;;9.13;5.85;;;;;;;;;;5142007;27;20043;-52
2024/01/09 04:21:55;;;;;;;10.07;5.90;;;;;;;;;;5139456;27;20061;-52
2024/01/09 04:24:22;;;;;;;9.77;5.85;;;;;;;;;;5140964;27;20387;-53
2024/01/09 04:26:49;;;;;;;9.20;5.65;;;;;;;;;;5133786;27;20408;-52
2024/01/09 04:29:16;;;;;;;8.05;5.43;;;;;;;;;;5133743;27;20066;-51
2024/01/09 04:31:44;;;;;;;10.85;6.22;;;;;;;;;;5135621;27;20062;-53
2024/01/09 04:34:11;;;;;;;10.23;6.32;;;;;;;;;;5140959;27;20050;-52
2024/01/09 04:36:37;;;;;;;8.93;5.63;;;;;;;;;;5143898;27;20054;-53
2024/01/09 04:39:04;;;;;;;10.20;5.97;;;;;;;;;;5135746;27;20059;-52
2024/01/09 04:41:31;;;;;;;12.38;5.82;;;;;;;;;;5133503;27;20061;-50
2024/01/09 04:43:58;;;;;;;9.52;5.82;;;;;;;;;;5133489;27;20062;-51
2024/01/09 04:46:24;;;;;;;9.15;4.93;;;;;;;;;;5132929;27;20531;-51
2024/01/09 04:48:53;;;;;;;10.32;6.05;;;;;;;;;;5137013;27;20053;-54
2024/01/09 04:51:19;;;;;;;10.85;5.53;;;;;;;;;;5141811;27;20057;-50
2024/01/09 04:53:46;;;;;;;12.70;6.20;;;;;;;;;;5156471;27;20057;-53
2024/01/09 04:56:13;;;;;;;9.65;6.13;;;;;;;;;;5153258;27;20061;-49
2024/01/09 04:58:40;;;;;;;9.77;5.68;;;;;;;;;;5155366;27;20047;-50
2024/01/09 05:01:10;;;;;;;11.00;6.35;;;;;;;;;;5163501;27;20042;-52
2024/01/09 05:03:37;;;;;;;;;;;;;;;;;;5166272;27;20047;-50
2024/01/09 05:06:05;;;;;;;8.07;5.22;;;;;;;;;;5165240;27;19927;-52
2024/01/09 05:08:32;;;;;;;11.90;5.90;;;;;;;;;;5161034;27;20038;-53
2024/01/09 05:10:58;;;;;;;10.45;5.80;;;;;;;;;;5164011;27;20050;-52
2024/01/09 05:13:25;;;;;;;10.73;5.65;;;;;;;;;;5167335;27;20072;-52
2024/01/09 05:15:52;;;;;;;9.88;5.82;;;;;;;;;;5165986;27;20058;-51
2024/01/09 05:18:19;;;;;;;9.73;5.70;;;;;;;;;;5163764;27;20046;-49
2024/01/09 05:20:46;;;;;;;8.90;5.30;;;;;;;;;;5167064;27;20062;-50
2024/01/09 05:23:14;;;;;;;8.02;5.60;;;;;;;;;;5160254;27;20047;-54
2024/01/09 05:25:41;;;;;;;9.23;5.35;;;;;;;;;;5159309;27;20058;-52
2024/01/09 05:28:08;;;;;;;9.27;6.18;;;;;;;;;;5156471;27;20042;-51
2024/01/09 05:30:34;;;;;;;8.88;5.65;;;;;;;;;;5156271;27;20055;-53
2024/01/09 05:33:01;;;;;;;9.40;5.82;;;;;;;;;;5160909;27;20407;-53
2024/01/09 05:35:28;;;;;;;9.18;5.82;;;;;;;;;;5153674;27;20053;-53
2024/01/09 05:37:55;;;;;;;10.05;6.05;;;;;;;;;;5154565;27;20050;-52
2024/01/09 05:40:23;;;;;;;11.82;5.50;;;;;;;;;;5156290;27;20054;-55
2024/01/09 05:42:50;;;;;;;11.18;6.03;;;;;;;;;;5153710;27;20051;-50
2024/01/09 05:45:17;;;;;;;10.93;6.40;;;;;;;;;;5153533;27;20046;-53
2024/01/09 05:47:44;;;;;;;12.40;6.32;;;;;;;;;;5156747;27;20042;-53
2024/01/09 05:50:11;;;;;;;10.93;6.47;;;;;;;;;;5152907;27;20047;-49
2024/01/09 05:52:38;;;;;;;8.52;5.35;;;;;;;;;;5156661;27;20503;-55
2024/01/09 05:55:06;;;;;;;9.93;5.70;;;;;;;;;;5153020;27;20057;-54
2024/01/09 05:57:34;;;;;;;10.43;5.80;;;;;;;;;;5156066;27;20507;-54
2024/01/09 06:00:00;;;;;;;10.35;5.93;;;;;;;;;;5155597;27;20054;-54
2024/01/09 06:02:27;;;;;;;9.13;5.65;;;;;;;;;;5172343;27;20392;-54
2024/01/09 06:04:54;;;;;;;9.63;5.35;;;;;;;;;;5155129;27;20404;-53
2024/01/09 06:07:22;;;;;;;8.60;5.60;;;;;;;;;;5155538;27;20058;-52
2024/01/09 06:09:49;;;;;;;9.98;5.97;;;;;;;;;;5156124;27;20042;-54
2024/01/09 06:12:16;;;;;;;12.48;6.53;;;;;;;;;;5153582;27;20042;-52
2024/01/09 06:14:44;;;;;;;12.90;6.40;;;;;;;;;;5156238;27;20057;-54
2024/01/09 06:17:12;;;;;;;11.20;6.93;;;;;;;;;;5155679;27;20055;-51
2024/01/09 06:19:38;;;;;;;8.88;5.65;;;;;;;;;;5154533;27;20050;-53
2024/01/09 06:22:05;;;;;;;9.10;5.60;;;;;;;;;;5155842;27;20046;-54
2024/01/09 06:24:32;;;;;;;11.82;5.65;;;;;;;;;;5156149;27;20380;-54
2024/01/09 06:26:59;;;;;;;13.32;6.03;;;;;;;;;;5156031;27;20054;-55
2024/01/09 06:29:29;;;;;;;9.82;6.20;;;;;;;;;;5155658;27;20047;-55
2024/01/09 06:31:57;;;;;;;10.98;5.93;;;;;;;;;;5154535;27;20058;-55
2024/01/09 06:34:24;;;;;;;14.55;6.28;;;;;;;;;;5154582;27;20046;-50
2024/01/09 06:36:51;;;;;;;13.40;6.40;;;;;;;;;;5153725;27;20054;-48
2024/01/09 06:39:18;;;;;;;9.57;5.30;;;;;;;;;;5156972;27;20051;-50
2024/01/09 06:41:45;;;;;;;10.30;6.35;;;;;;;;;;5154491;27;20046;-53
2024/01/09 06:44:12;;;;;;;10.20;6.25;;;;;;;;;;5155657;27;20050;-50
2024/01/09 06:46:38;;;;;;;8.48;5.65;;;;;;;;;;5165532;27;20053;-52
2024/01/09 06:49:07;;;;;;;11.55;6.22;;;;;;;;;;5154775;27;20050;-49
2024/01/09 06:51:33;;;;;;;9.10;5.75;;;;;;;;;;5156067;27;20083;-51
2024/01/09 06:54:00;;;;;;;10.48;6.05;;;;;;;;;;5170953;27;20081;-52
2024/01/09 06:56:27;;;;;;;9.35;6.03;;;;;;;;;;5174049;27;20046;-51
2024/01/09 06:58:55;;;;;;;10.05;6.10;;;;;;;;;;5134882;27;20043;-50
2024/01/09 07:01:22;;;;;;;11.85;6.43;;;;;;;;;;5152929;27;20053;-50
2024/01/09 07:03:48;;;;;;;10.70;6.07;;;;;;;;;;5153490;27;20061;-53
2024/01/09 07:06:17;;;;;;;8.65;5.70;;;;;;;;;;5153824;27;20050;-52
2024/01/09 07:08:44;;;;;;;11.82;6.32;;;;;;;;;;5156057;27;20050;-52
2024/01/09 07:11:10;;;;;;;10.77;5.70;;;;;;;;;;5155338;27;20381;-50
2024/01/09 07:13:37;;;;;;;11.35;6.05;;;;;;;;;;5151691;27;20404;-51
2024/01/09 07:16:04;;;;;;;11.23;6.40;;;;;;;;;;5152227;27;20051;-49
2024/01/09 07:18:31;;;;;;;11.02;6.70;;;;;;;;;;5154195;27;20108;-50
2024/01/09 07:20:58;;;;;;;12.68;6.43;;;;;;;;;;5153438;27;20046;-49
2024/01/09 07:23:26;;;;;;;10.25;5.95;;;;;;;;;;5153420;27;20054;-49
2024/01/09 07:25:53;;;;;;;11.60;6.45;;;;;;;;;;5154641;27;20046;-52
2024/01/09 07:28:20;;;;;;;11.15;6.80;;;;;;;;;;5154561;27;20046;-51
2024/01/09 07:30:47;;;;;;;10.95;6.50;;;;;;;;;;5153535;27;20042;-49
2024/01/09 07:33:15;;;;;;;10.25;6.07;;;;;;;;;;5143532;27;20051;-51
2024/01/09 07:35:41;;;;;;;11.13;6.10;;;;;;;;;;5151145;27;20418;-52
2024/01/09 07:38:08;;;;;;;13.55;7.28;;;;;;;;;;5149601;27;20063;-51
2024/01/09 07:40:37;;;;;;;12.23;6.97;;;;;;;;;;5153224;27;20043;-50
2024/01/09 07:43:03;;;;;;;10.68;6.65;;;;;;;;;;5142264;27;20057;-51
2024/01/09 07:45:30;;;;;;;11.27;6.40;;;;;;;;;;5152598;27;20047;-49
2024/01/09 07:47:57;;;;;;;10.45;6.53;;;;;;;;;;5154176;27;20058;-52
2024/01/09 07:50:24;;;;;;;10.75;6.38;;;;;;;;;;5154261;27;20069;-51
2024/01/09 07:52:51;;;;;;;10.90;6.80;;;;;;;;;;5142478;27;20055;-50
2024/01/09 07:55:18;;;;;;;11.77;6.32;;;;;;;;;;5131652;27;20050;-50
2024/01/09 07:57:46;;;;;;;10.25;6.25;;;;;;;;;;5131759;27;20043;-49
2024/01/09 08:00:13;;;;;;;12.35;6.88;;;;;;;;;;5133192;27;20055;-50
2024/01/09 08:02:40;;;;;;;10.98;6.72;;;;;;;;;;5133204;27;20389;-49
2024/01/09 08:05:07;;;;;;;11.30;6.68;;;;;;;;;;5133610;27;20065;-51
2024/01/09 08:07:34;;;;;;;11.40;7.18;;;;;;;;;;5133272;28;20054;-50
2024/01/09 08:10:01;;;;;;;10.88;6.50;;;;;;;;;;5133048;27;20046;-49
2024/01/09 08:12:28;;;;;;;10.30;6.90;;;;;;;;;;5131648;27;20484;-51
2024/01/09 08:14:56;;;;;;;13.20;6.72;;;;;;;;;;5132150;27;20059;-49
2024/01/09 08:17:23;;;;;;;10.07;6.60;;;;;;;;;;5131677;27;20069;-52
2024/01/09 08:19:50;;;;;;;8.80;6.60;;;;;;;;;;5132362;27;20058;-51
2024/01/09 08:22:18;;;;;;;9.70;6.00;;;;;;;;;;5133536;27;20058;-51
2024/01/09 08:24:44;;;;;;;10.30;6.22;;;;;;;;;;5133702;27;20055;-50
2024/01/09 08:27:12;;;;;;;11.95;6.72;;;;;;;;;;5132770;27;20066;-52
2024/01/09 08:29:38;;;;;;;10.57;6.03;;;;;;;;;;5129858;27;20082;-50
2024/01/09 08:32:07;;;;;;;9.65;6.45;;;;;;;;;;5131663;27;20043;-50
2024/01/09 08:34:34;;;;;;;10.35;6.78;;;;;;;;;;5132779;27;20047;-49
2024/01/09 08:37:00;;;;;;;9.10;6.20;;;;;;;;;;5137341;27;20047;-52
2024/01/09 08:39:27;;;;;;;8.57;5.60;;;;;;;;;;5137085;27;20050;-55
2024/01/09 08:41:54;;;;;;;9.02;6.43;;;;;;;;;;5134848;27;20054;-51
2024/01/09 08:44:21;;;;;;;8.80;6.00;;;;;;;;;;5137511;27;20059;-52
2024/01/09 08:46:48;;;;;;;7.38;5.43;;;;;;;;;;5137255;27;20055;-50
2024/01/09 08:49:16;;;;;;;7.95;5.80;;;;;;;;;;5136673;27;20051;-54
2024/01/09 08:51:43;;;;;;;8.98;6.20;;;;;;;;;;5123405;27;20048;-49
2024/01/09 08:54:10;;;;;;;7.95;5.68;;;;;;;;;;5137214;27;20472;-52
2024/01/09 08:56:36;;;;;;;8.35;5.93;;;;;;;;;;5139263;27;20055;-52
2024/01/09 08:59:03;;;;;;;8.30;6.10;;;;;;;;;;5157732;27;20368;-52
2024/01/09 09:01:32;;;;;;;7.70;5.82;;;;;;;;;;5157613;27;20070;-52
2024/01/09 09:03:58;;;;;;;7.18;5.90;;;;;;;;;;5157543;27;20061;-53
2024/01/09 09:06:27;;;;;;;6.90;5.30;;;;;;;;;;5157090;27;20507;-54
2024/01/09 09:08:53;;;;;;;8.23;6.22;;;;;;;;;;5155484;27;20054;-55
2024/01/09 09:11:20;;;;;;;8.40;5.97;;;;;;;;;;5157018;27;20046;-54
2024/01/09 09:13:47;;;;;;;7.78;6.50;;;;;;;;;;5157065;27;20054;-55
2024/01/09 09:16:14;;;;;;;7.85;5.72;;;;;;;;;;5157449;27;20051;-56
2024/01/09 09:18:41;;;;;;;7.75;5.50;;;;;;;;;;5156451;27;20507;-56
2024/01/09 09:21:08;;;;;;;6.55;5.05;;;;;;;;;;5157194;27;20480;-55
2024/01/09 09:23:36;;;;;;;6.72;5.78;;;;;;;;;;5156768;27;20061;-56
2024/01/09 09:26:04;;;;;;;6.80;5.88;;;;;;;;;;5155636;27;20510;-55
2024/01/09 09:28:30;;;;;;;6.57;5.85;;;;;;;;;;5157141;27;20483;-55
2024/01/09 09:30:57;;;;;;;7.60;5.97;;;;;;;;;;5156713;27;20050;-56
2024/01/09 09:33:27;;;;;;;10.20;7.50;;;;;;;;;;5157031;27;20054;-55
2024/01/09 09:35:53;;;;;;;9.50;5.97;;;;;;;;;;5156097;27;20049;-56
2024/01/09 09:38:22;;;;;;;7.72;6.18;;;;;;;;;;5156828;27;20051;-56
2024/01/09 09:40:50;;;;;;;7.73;6.93;;;;;;;;;;5156790;27;20055;-57
2024/01/09 09:43:21;;;;;;;8.27;6.88;;;;;;;;;;5156196;27;20065;-56
2024/01/09 09:45:51;;;;;;;8.20;7.15;;;;;;;;;;5156759;27;20073;-57
2024/01/09 09:48:21;;;;;;;6.10;5.50;;;;;;;;;;5155369;27;20050;-56
2024/01/09 09:50:47;;;;;;;7.53;5.57;;;;;;;;;;5156713;27;20047;-58
2024/01/09 09:53:14;;;;;;;6.88;5.60;;;;;;;;;;5141576;27;20055;-57
2024/01/09 09:55:43;;;;;;;5.65;4.93;;;;;;;;;;5136077;27;20054;-57
2024/01/09 09:58:11;;;;;;;6.47;5.25;;;;;;;;;;5135421;27;20047;-57
2024/01/09 10:00:38;;;;;;;6.47;5.35;;;;;;;;;;5135564;27;20050;-56
2024/01/09 10:03:08;;;;;;;6.93;5.53;;;;;;;;;;5135689;27;20051;-57
2024/01/09 10:05:38;;;;;;;6.20;5.57;;;;;;;;;;5133690;27;20043;-56
2024/01/09 10:08:07;;;;;;;6.05;5.30;;;;;;;;;;5134913;27;20051;-57
2024/01/09 10:10:33;;;;;;;6.90;5.93;;;;;;;;;;5135745;27;20054;-57
2024/01/09 10:13:00;;;;;;;9.80;7.78;;;;;;;;;;5134072;27;20400;-57
2024/01/09 10:15:29;;;;;;;14.05;10.02;;;;;;;;;;5133746;27;20047;-57
2024/01/09 10:17:56;;;;;;;9.30;6.78;;;;;;;;;;5134656;27;20051;-56
2024/01/09 10:20:23;;;;;;;8.05;5.70;;;;;;;;;;5135065;27;20055;-57
2024/01/09 10:22:50;;;;;;;6.55;5.60;;;;;;;;;;5132956;27;20416;-57
2024/01/09 10:25:17;;;;;;;7.20;5.80;;;;;;;;;;5132194;27;20039;-56
2024/01/09 10:27:44;;;;;;;8.82;6.97;;;;;;;;;;5133884;27;20055;-56
2024/01/09 10:30:12;;;;;;;8.70;5.97;;;;;;;;;;5134925;27;20051;-56
2024/01/09 10:32:40;;;;;;;10.32;6.90;;;;;;;;;;5135095;27;20502;-56
2024/01/09 10:35:08;;;;;;;9.90;6.90;;;;;;;;;;5132967;27;20480;-58
2024/01/09 10:37:35;;;;;;;8.20;5.63;;;;;;;;;;5134022;27;20066;-56
2024/01/09 10:40:04;;;;;;;7.28;5.75;;;;;;;;;;5134974;27;20058;-56
2024/01/09 10:42:31;;;;;;;7.57;6.03;;;;;;;;;;5133264;27;20171;-56
2024/01/09 10:44:58;;;;;;;9.25;6.97;;;;;;;;;;5135028;27;20070;-56
2024/01/09 10:47:27;;;;;;;7.95;5.93;;;;;;;;;;5134884;27;20495;-56
2024/01/09 10:49:56;;;;;;;6.80;5.53;;;;;;;;;;5134970;27;20051;-56
2024/01/09 10:52:24;;;;;;;5.60;4.60;;;;;;;;;;5132708;27;20043;-57
2024/01/09 10:54:51;;;;;;;5.10;4.17;;;;;;;;;;5133208;27;20488;-57
2024/01/09 10:57:18;;;;;;;7.72;5.93;;;;;;;;;;5133421;27;20464;-56
2024/01/09 10:59:45;;;;;;;8.10;6.55;;;;;;;;;;5132429;27;20384;-57
2024/01/09 11:02:15;;;;;;;6.72;5.40;;;;;;;;;;5124607;27;20043;-56
2024/01/09 11:04:43;;;;;;;5.57;4.80;;;;;;;;;;5134491;27;20047;-57
2024/01/09 11:07:14;;;;;;;5.65;4.93;;;;;;;;;;5134535;27;20064;-56
2024/01/09 11:09:42;;;;;;;5.10;4.22;;;;;;;;;;5134158;27;20058;-56
2024/01/09 11:12:11;;;;;;;5.90;4.43;;;;;;;;;;5133099;27;20407;-57
2024/01/09 11:14:39;;;;;;;5.20;4.70;;;;;;;;;;5134091;27;20058;-57
2024/01/09 11:17:07;;;;;;;6.85;4.55;;;;;;;;;;5134120;27;20046;-56
2024/01/09 11:19:34;;;;;;;5.53;4.68;;;;;;;;;;5134493;27;20066;-57
2024/01/09 11:22:13;;;;;;;5.40;4.82;;;;;;;;;;5132752;27;20051;-56
2024/01/09 11:24:40;;;;;;;6.55;5.05;;;;;;;;;;5133572;27;20055;-56
2024/01/09 11:27:10;;;;;;;5.40;4.72;;;;;;;;;;5132659;27;20062;-57
2024/01/09 11:29:49;;;;;;;5.50;4.40;;;;;;;;;;5131198;27;20058;-56
2024/01/09 11:32:17;;;;;;;5.65;4.40;;;;;;;;;;5134306;27;20051;-56
2024/01/09 11:34:44;;;;;;;7.63;4.50;;;;;;;;;;5134353;27;20051;-57
2024/01/09 11:37:18;;;;;;;6.25;4.95;;;;;;;;;;5134137;27;20074;-56
2024/01/09 11:39:45;;;;;;;5.18;4.40;;;;;;;;;;5132352;27;20381;-57
2024/01/09 11:42:12;;;;;;;6.32;5.18;;;;;;;;;;5133670;27;20054;-57
2024/01/09 11:44:39;;;;;;;17.52;11.07;;;;;;;;;;5133901;27;20058;-57
2024/01/09 11:47:06;;;;;;;6.80;5.30;;;;;;;;;;5133757;27;20504;-57
2024/01/09 11:49:33;;;;;;;8.35;5.68;;;;;;;;;;5132933;27;20491;-58
2024/01/09 11:52:00;;;;;;;4.90;4.15;;;;;;;;;;5134850;27;20522;-57
2024/01/09 11:54:28;;;;;;;6.38;4.72;;;;;;;;;;5154139;27;20050;-57
2024/01/09 11:56:56;;;;;;;7.47;5.63;;;;;;;;;;5152731;27;20043;-56
2024/01/09 11:59:23;;;;;;;9.70;6.60;;;;;;;;;;5154759;27;20058;-57
2024/01/09 12:01:50;;;;;;;8.27;5.85;;;;;;;;;;5154384;27;20050;-57
2024/01/09 12:04:18;;;;;;;5.75;4.50;;;;;;;;;;5154170;27;20055;-57
2024/01/09 12:06:47;;;;;;;5.13;3.80;;;;;;;;;;5152970;27;20055;-57
2024/01/09 12:09:14;;;;;;;6.32;4.97;;;;;;;;;;5153427;27;20455;-56
2024/01/09 12:11:42;;;;;;;5.47;4.82;;;;;;;;;;5153605;27;20057;-55
2024/01/09 12:14:09;;;;;;;5.55;4.60;;;;;;;;;;5154188;27;20051;-56
2024/01/09 12:16:35;;;;;;;5.25;4.65;;;;;;;;;;5153905;27;20062;-56
2024/01/09 12:19:02;;;;;;;5.07;4.43;;;;;;;;;;5152103;27;20055;-56
2024/01/09 12:21:30;;;;;;;4.28;3.88;;;;;;;;;;5152525;27;20042;-55
2024/01/09 12:23:59;;;;;;;5.20;4.28;;;;;;;;;;5151517;27;20042;-55
2024/01/09 12:26:27;;;;;;;4.90;3.95;;;;;;;;;;5153665;27;20046;-55
2024/01/09 12:28:56;;;;;;;6.43;5.07;;;;;;;;;;5152114;27;20073;-56
2024/01/09 12:31:23;;;;;;;4.97;3.60;;;;;;;;;;5153515;27;20433;-56
2024/01/09 12:33:50;;;;;;;5.03;4.18;;;;;;;;;;5153800;27;20054;-56
2024/01/09 12:36:17;;;;;;;4.00;3.38;;;;;;;;;;5153836;27;20054;-56
2024/01/09 12:38:44;;;;;;;6.68;4.80;;;;;;;;;;5153669;27;20068;-57
2024/01/09 12:41:11;;;;;;;5.18;3.50;;;;;;;;;;5152965;27;20058;-56
2024/01/09 12:43:38;;;;;;;5.07;3.83;;;;;;;;;;5152360;27;20410;-57
2024/01/09 12:46:07;;;;;;;5.45;4.07;;;;;;;;;;5151205;27;20054;-56
2024/01/09 12:48:34;;;;;;;4.70;4.20;;;;;;;;;;5151743;27;20057;-56
2024/01/09 12:51:01;;;;;;;4.32;3.60;;;;;;;;;;5152294;27;20404;-56
2024/01/09 12:53:28;;;;;;;5.72;4.07;;;;;;;;;;5138104;27;20056;-56
2024/01/09 12:56:06;;;;;;;4.57;3.92;;;;;;;;;;5132687;28;20059;-56
2024/01/09 12:58:33;;;;;;;3.85;3.40;;;;;;;;;;5132957;28;20055;-56
2024/01/09 13:01:01;;;;;;;4.15;3.47;;;;;;;;;;5133099;28;20051;-56
2024/01/09 13:03:30;;;;;;;4.88;3.88;;;;;;;;;;5132653;27;20404;-57
2024/01/09 13:06:00;;;;;;;4.63;3.78;;;;;;;;;;5130160;27;20047;-56
2024/01/09 13:08:26;;;;;;;;;;;;;;;;;;5130709;27;20051;-56
2024/01/09 13:10:53;;;;;;;4.35;3.90;;;;;;;;;;5133132;28;19926;-55
2024/01/09 13:13:20;;;;;;;5.65;4.05;;;;;;;;;;5132734;28;20043;-56
2024/01/09 13:15:48;;;;;;;4.68;4.00;;;;;;;;;;5131202;27;20047;-56
2024/01/09 13:18:15;;;;;;;5.90;3.95;;;;;;;;;;5132808;28;20407;-56
2024/01/09 13:20:44;;;;;;;4.82;3.88;;;;;;;;;;5128654;27;20051;-57
2024/01/09 13:23:11;;;;;;;5.22;3.83;;;;;;;;;;5136062;27;20047;-56
2024/01/09 13:25:38;;;;;;;6.15;4.10;;;;;;;;;;5135860;27;20047;-56
2024/01/09 13:28:05;;;;;;;5.00;4.50;;;;;;;;;;5134362;27;20066;-56
2024/01/09 13:30:32;;;;;;;5.35;4.85;;;;;;;;;;5135039;27;20408;-56
2024/01/09 13:33:00;;;;;;;5.25;4.75;;;;;;;;;;5134158;27;20057;-58
2024/01/09 13:35:27;;;;;;;6.38;5.60;;;;;;;;;;5132849;27;20051;-56
2024/01/09 13:37:56;;;;;;;6.63;5.10;;;;;;;;;;5135129;27;20047;-56
2024/01/09 13:40:23;;;;;;;6.32;5.20;;;;;;;;;;5136383;27;20078;-56
2024/01/09 13:42:50;;;;;;;6.20;4.80;;;;;;;;;;5135807;27;20047;-56
2024/01/09 13:45:17;;;;;;;7.47;4.88;;;;;;;;;;5136091;27;20058;-56
2024/01/09 13:47:44;;;;;;;6.47;5.18;;;;;;;;;;5134868;27;20480;-56
2024/01/09 13:50:11;;;;;;;5.70;4.40;;;;;;;;;;5132562;27;20051;-56
2024/01/09 13:52:38;;;;;;;5.43;4.25;;;;;;;;;;5143614;27;20066;-56
2024/01/09 13:55:09;;;;;;;7.38;5.70;;;;;;;;;;5156553;27;20051;-56
2024/01/09 13:57:36;;;;;;;7.63;5.15;;;;;;;;;;5155817;27;20058;-57
2024/01/09 14:00:09;;;;;;;6.18;4.30;;;;;;;;;;5155388;27;20051;-56
2024/01/09 14:02:36;;;;;;;6.00;4.68;;;;;;;;;;5156249;27;20050;-56
2024/01/09 14:05:04;;;;;;;7.95;4.30;;;;;;;;;;5156790;27;20484;-56
2024/01/09 14:07:31;;;;;;;5.65;4.05;;;;;;;;;;5154693;27;20051;-56
2024/01/09 14:09:58;;;;;;;8.13;4.78;;;;;;;;;;5156591;27;20054;-56
2024/01/09 14:12:26;;;;;;;5.97;3.97;;;;;;;;;;5155752;27;20058;-55
2024/01/09 14:14:53;;;;;;;5.30;4.40;;;;;;;;;;5156346;27;20053;-55
2024/01/09 14:17:21;;;;;;;7.25;3.85;;;;;;;;;;5154373;27;20499;-55
2024/01/09 14:19:48;;;;;;;8.68;4.50;;;;;;;;;;5154528;27;20051;-56
2024/01/09 14:22:14;;;;;;;6.22;4.60;;;;;;;;;;5155745;27;20047;-55
2024/01/09 14:24:41;;;;;;;7.32;4.78;;;;;;;;;;5156088;27;20054;-55
2024/01/09 14:27:08;;;;;;;7.53;5.28;;;;;;;;;;5153662;27;20054;-54
2024/01/09 14:29:37;;;;;;;7.55;4.60;;;;;;;;;;5154313;27;20043;-55
2024/01/09 14:32:05;;;;;;;6.90;4.65;;;;;;;;;;5155396;27;20060;-56
2024/01/09 14:34:32;;;;;;;7.38;4.78;;;;;;;;;;5155291;27;20051;-55
2024/01/09 14:37:00;;;;;;;9.07;4.72;;;;;;;;;;5154587;27;20132;-55
2024/01/09 14:39:27;;;;;;;9.05;5.32;;;;;;;;;;5155552;27;20047;-54
2024/01/09 14:41:54;;;;;;;6.97;4.57;;;;;;;;;;5155550;27;20062;-55